sensor_id;sensor_type;location;lat;lon;timestamp;pressure;altitude;pressure_sealevel;temperature;humidity
20930;BME280;21895;47.072;15.132;2023-02-02T00:01:54;96694.00;;;6.77;49.93
20930;BME280;21895;47.072;15.132;2023-02-02T00:04:31;96688.00;;;6.61;48.60
20930;BME280;21895;47.072;15.132;2023-02-02T00:06:58;96695.00;;;6.49;48.29
20930;BME280;21895;47.072;15.132;2023-02-02T00:09:28;96698.00;;;6.56;48.28
20930;BME280;21895;47.072;15.132;2023-02-02T00:11:56;96686.00;;;6.46;48.54
20930;BME280;21895;47.072;15.132;2023-02-02T00:14:23;96684.00;;;6.59;48.70
20930;BME280;21895;47.072;15.132;2023-02-02T00:16:53;96680.00;;;6.59;48.91
20930;BME280;21895;47.072;15.132;2023-02-02T00:19:27;96682.00;;;6.74;48.63
20930;BME280;21895;47.072;15.132;2023-02-02T00:21:55;96673.00;;;6.73;48.53
20930;BME280;21895;47.072;15.132;2023-02-02T00:24:23;96672.00;;;6.84;48.83
20930;BME280;21895;47.072;15.132;2023-02-02T00:26:55;96661.00;;;6.74;49.10
20930;BME280;21895;47.072;15.132;2023-02-02T00:29:27;96666.00;;;6.86;49.31
20930;BME280;21895;47.072;15.132;2023-02-02T00:31:54;96670.00;;;6.83;49.40
20930;BME280;21895;47.072;15.132;2023-02-02T00:34:22;96675.00;;;6.93;50.14
20930;BME280;21895;47.072;15.132;2023-02-02T00:36:49;96674.00;;;6.77;50.58
20930;BME280;21895;47.072;15.132;2023-02-02T00:39:19;96684.00;;;6.52;50.76
20930;BME280;21895;47.072;15.132;2023-02-02T00:41:46;96678.00;;;6.65;50.82
20930;BME280;21895;47.072;15.132;2023-02-02T00:44:13;96687.00;;;6.54;50.05
20930;BME280;21895;47.072;15.132;2023-02-02T00:46:58;96682.00;;;6.54;49.91
20930;BME280;21895;47.072;15.132;2023-02-02T00:49:25;96677.00;;;6.50;50.34
20930;BME280;21895;47.072;15.132;2023-02-02T00:51:51;96669.00;;;6.48;50.40
20930;BME280;21895;47.072;15.132;2023-02-02T00:54:18;96672.00;;;6.46;51.07
20930;BME280;21895;47.072;15.132;2023-02-02T00:56:44;96680.00;;;6.59;50.99
20930;BME280;21895;47.072;15.132;2023-02-02T00:59:11;96671.00;;;6.52;51.27
20930;BME280;21895;47.072;15.132;2023-02-02T01:01:38;96673.00;;;6.32;52.24
20930;BME280;21895;47.072;15.132;2023-02-02T01:04:05;96665.00;;;6.29;52.43
20930;BME280;21895;47.072;15.132;2023-02-02T01:06:31;96674.00;;;6.28;52.43
20930;BME280;21895;47.072;15.132;2023-02-02T01:08:58;96667.00;;;6.38;52.57
20930;BME280;21895;47.072;15.132;2023-02-02T01:11:24;96663.00;;;6.45;52.76
20930;BME280;21895;47.072;15.132;2023-02-02T01:13:51;96664.00;;;6.48;52.85
20930;BME280;21895;47.072;15.132;2023-02-02T01:16:17;96662.00;;;6.48;53.03
20930;BME280;21895;47.072;15.132;2023-02-02T01:18:44;96667.00;;;6.58;53.43
20930;BME280;21895;47.072;15.132;2023-02-02T01:21:11;96682.00;;;6.56;53.59
20930;BME280;21895;47.072;15.132;2023-02-02T01:23:39;96683.00;;;6.50;54.41
20930;BME280;21895;47.072;15.132;2023-02-02T01:26:09;96696.00;;;6.55;54.66
20930;BME280;21895;47.072;15.132;2023-02-02T01:28:37;96695.00;;;6.56;54.11
20930;BME280;21895;47.072;15.132;2023-02-02T01:31:19;96685.00;;;6.51;54.27
20930;BME280;21895;47.072;15.132;2023-02-02T01:33:47;96672.00;;;6.38;53.80
20930;BME280;21895;47.072;15.132;2023-02-02T01:36:21;96652.00;;;6.47;53.99
20930;BME280;21895;47.072;15.132;2023-02-02T01:38:49;96659.00;;;6.56;53.24
20930;BME280;21895;47.072;15.132;2023-02-02T01:41:22;96658.00;;;6.59;53.09
20930;BME280;21895;47.072;15.132;2023-02-02T01:43:59;96639.00;;;6.47;53.86
20930;BME280;21895;47.072;15.132;2023-02-02T01:46:35;96643.00;;;6.46;54.69
20930;BME280;21895;47.072;15.132;2023-02-02T01:49:12;96639.00;;;6.34;54.84
20930;BME280;21895;47.072;15.132;2023-02-02T01:51:49;96642.00;;;6.34;55.20
20930;BME280;21895;47.072;15.132;2023-02-02T01:54:30;96650.00;;;6.42;54.05
20930;BME280;21895;47.072;15.132;2023-02-02T01:57:03;96635.00;;;6.18;54.52
20930;BME280;21895;47.072;15.132;2023-02-02T01:59:32;96643.00;;;6.33;55.11
20930;BME280;21895;47.072;15.132;2023-02-02T02:02:01;96655.00;;;6.26;55.21
20930;BME280;21895;47.072;15.132;2023-02-02T02:04:30;96647.00;;;6.29;54.07
20930;BME280;21895;47.072;15.132;2023-02-02T02:07:00;96647.00;;;6.26;54.00
20930;BME280;21895;47.072;15.132;2023-02-02T02:09:27;96660.00;;;6.39;53.47
20930;BME280;21895;47.072;15.132;2023-02-02T02:11:54;96661.00;;;6.28;53.12
20930;BME280;21895;47.072;15.132;2023-02-02T02:14:21;96645.00;;;6.44;52.68
20930;BME280;21895;47.072;15.132;2023-02-02T02:23:46;96632.00;;;6.39;53.03
20930;BME280;21895;47.072;15.132;2023-02-02T02:27:45;96626.00;;;6.56;52.82
20930;BME280;21895;47.072;15.132;2023-02-02T02:31:07;96624.00;;;6.51;52.73
20930;BME280;21895;47.072;15.132;2023-02-02T02:34:15;96620.00;;;6.62;52.54
20930;BME280;21895;47.072;15.132;2023-02-02T02:37:09;96619.00;;;6.50;52.50
20930;BME280;21895;47.072;15.132;2023-02-02T02:41:17;96619.00;;;6.53;52.98
20930;BME280;21895;47.072;15.132;2023-02-02T02:43:55;96630.00;;;6.58;52.83
20930;BME280;21895;47.072;15.132;2023-02-02T02:46:25;96625.00;;;6.57;53.48
20930;BME280;21895;47.072;15.132;2023-02-02T02:48:56;96628.00;;;6.62;53.50
20930;BME280;21895;47.072;15.132;2023-02-02T02:53:47;96624.00;;;6.61;53.83
20930;BME280;21895;47.072;15.132;2023-02-02T02:56:30;96621.00;;;6.63;52.89
20930;BME280;21895;47.072;15.132;2023-02-02T03:00:08;96625.00;;;6.68;52.69
20930;BME280;21895;47.072;15.132;2023-02-02T03:03:56;96640.00;;;6.48;53.00
20930;BME280;21895;47.072;15.132;2023-02-02T03:06:54;96624.00;;;6.50;52.99
20930;BME280;21895;47.072;15.132;2023-02-02T03:09:28;96616.00;;;6.50;53.55
20930;BME280;21895;47.072;15.132;2023-02-02T03:12:00;96608.00;;;6.74;52.81
20930;BME280;21895;47.072;15.132;2023-02-02T03:14:27;96598.00;;;6.71;53.00
20930;BME280;21895;47.072;15.132;2023-02-02T03:16:53;96601.00;;;6.71;53.13
20930;BME280;21895;47.072;15.132;2023-02-02T03:19:20;96596.00;;;6.78;53.53
20930;BME280;21895;47.072;15.132;2023-02-02T03:21:46;96596.00;;;6.68;53.93
20930;BME280;21895;47.072;15.132;2023-02-02T03:24:13;96597.00;;;6.84;53.42
20930;BME280;21895;47.072;15.132;2023-02-02T03:26:39;96602.00;;;6.72;54.10
20930;BME280;21895;47.072;15.132;2023-02-02T03:29:06;96593.00;;;6.71;53.88
20930;BME280;21895;47.072;15.132;2023-02-02T03:31:32;96592.00;;;6.74;54.06
20930;BME280;21895;47.072;15.132;2023-02-02T03:33:59;96594.00;;;6.69;54.22
20930;BME280;21895;47.072;15.132;2023-02-02T03:36:26;96590.00;;;6.83;54.24
20930;BME280;21895;47.072;15.132;2023-02-02T03:38:53;96592.00;;;6.75;54.10
20930;BME280;21895;47.072;15.132;2023-02-02T03:41:19;96589.00;;;6.79;53.87
20930;BME280;21895;47.072;15.132;2023-02-02T03:43:46;96578.00;;;6.70;54.04
20930;BME280;21895;47.072;15.132;2023-02-02T03:46:12;96584.00;;;6.66;54.28
20930;BME280;21895;47.072;15.132;2023-02-02T03:48:39;96570.00;;;6.54;54.40
20930;BME280;21895;47.072;15.132;2023-02-02T03:51:08;96573.00;;;6.60;54.13
20930;BME280;21895;47.072;15.132;2023-02-02T03:53:35;96569.00;;;6.52;54.28
20930;BME280;21895;47.072;15.132;2023-02-02T03:56:01;96570.00;;;6.57;54.53
20930;BME280;21895;47.072;15.132;2023-02-02T03:58:28;96572.00;;;6.39;54.80
20930;BME280;21895;47.072;15.132;2023-02-02T04:01:07;96570.00;;;6.24;55.42
20930;BME280;21895;47.072;15.132;2023-02-02T04:03:33;96567.00;;;6.14;56.12
20930;BME280;21895;47.072;15.132;2023-02-02T04:06:00;96563.00;;;6.13;56.28
20930;BME280;21895;47.072;15.132;2023-02-02T04:08:27;96560.00;;;6.32;56.00
20930;BME280;21895;47.072;15.132;2023-02-02T04:10:54;96554.00;;;6.34;55.68
20930;BME280;21895;47.072;15.132;2023-02-02T04:13:20;96555.00;;;6.47;55.28
20930;BME280;21895;47.072;15.132;2023-02-02T04:15:47;96559.00;;;6.42;55.40
20930;BME280;21895;47.072;15.132;2023-02-02T04:18:13;96561.00;;;6.12;56.17
20930;BME280;21895;47.072;15.132;2023-02-02T04:20:40;96571.00;;;6.31;55.70
20930;BME280;21895;47.072;15.132;2023-02-02T04:23:06;96578.00;;;6.42;55.38
20930;BME280;21895;47.072;15.132;2023-02-02T04:25:33;96577.00;;;6.41;55.19
20930;BME280;21895;47.072;15.132;2023-02-02T04:27:59;96584.00;;;6.59;54.63
20930;BME280;21895;47.072;15.132;2023-02-02T04:30:26;96595.00;;;6.74;54.21
20930;BME280;21895;47.072;15.132;2023-02-02T04:32:53;96603.00;;;6.74;53.99
20930;BME280;21895;47.072;15.132;2023-02-02T04:35:20;96606.00;;;6.65;54.31
20930;BME280;21895;47.072;15.132;2023-02-02T04:37:46;96605.00;;;6.46;55.40
20930;BME280;21895;47.072;15.132;2023-02-02T04:40:13;96632.00;;;6.39;56.37
20930;BME280;21895;47.072;15.132;2023-02-02T04:42:39;96630.00;;;6.15;58.15
20930;BME280;21895;47.072;15.132;2023-02-02T04:45:07;96625.00;;;5.79;60.30
20930;BME280;21895;47.072;15.132;2023-02-02T04:47:33;96635.00;;;5.81;60.50
20930;BME280;21895;47.072;15.132;2023-02-02T04:50:00;96631.00;;;5.76;60.92
20930;BME280;21895;47.072;15.132;2023-02-02T04:52:28;96634.00;;;5.81;60.87
20930;BME280;21895;47.072;15.132;2023-02-02T04:54:54;96623.00;;;5.89;60.54
20930;BME280;21895;47.072;15.132;2023-02-02T04:57:21;96631.00;;;5.95;60.17
20930;BME280;21895;47.072;15.132;2023-02-02T04:59:47;96633.00;;;6.14;59.73
20930;BME280;21895;47.072;15.132;2023-02-02T05:02:14;96635.00;;;6.30;59.33
20930;BME280;21895;47.072;15.132;2023-02-02T05:04:40;96638.00;;;6.28;59.13
20930;BME280;21895;47.072;15.132;2023-02-02T05:07:07;96636.00;;;6.35;59.22
20930;BME280;21895;47.072;15.132;2023-02-02T05:09:33;96628.00;;;6.29;59.42
20930;BME280;21895;47.072;15.132;2023-02-02T05:12:00;96633.00;;;6.42;59.31
20930;BME280;21895;47.072;15.132;2023-02-02T05:14:26;96626.00;;;6.49;58.96
20930;BME280;21895;47.072;15.132;2023-02-02T05:16:53;96636.00;;;6.45;59.54
20930;BME280;21895;47.072;15.132;2023-02-02T05:19:19;96632.00;;;6.69;58.93
20930;BME280;21895;47.072;15.132;2023-02-02T05:21:46;96630.00;;;6.53;59.33
20930;BME280;21895;47.072;15.132;2023-02-02T05:24:17;96632.00;;;6.66;59.64
20930;BME280;21895;47.072;15.132;2023-02-02T05:26:43;96639.00;;;6.59;60.19
20930;BME280;21895;47.072;15.132;2023-02-02T05:29:10;96636.00;;;6.43;60.97
20930;BME280;21895;47.072;15.132;2023-02-02T05:31:36;96635.00;;;6.41;61.32
20930;BME280;21895;47.072;15.132;2023-02-02T05:34:03;96629.00;;;6.44;61.40
20930;BME280;21895;47.072;15.132;2023-02-02T05:36:31;96620.00;;;6.52;61.62
20930;BME280;21895;47.072;15.132;2023-02-02T05:38:58;96620.00;;;6.42;62.24
20930;BME280;21895;47.072;15.132;2023-02-02T05:41:28;96630.00;;;6.27;63.18
20930;BME280;21895;47.072;15.132;2023-02-02T05:43:58;96631.00;;;6.40;62.63
20930;BME280;21895;47.072;15.132;2023-02-02T05:46:24;96640.00;;;6.38;62.80
20930;BME280;21895;47.072;15.132;2023-02-02T05:48:51;96641.00;;;6.32;63.89
20930;BME280;21895;47.072;15.132;2023-02-02T05:51:29;96644.00;;;6.05;65.37
20930;BME280;21895;47.072;15.132;2023-02-02T05:53:57;96638.00;;;5.93;66.16
20930;BME280;21895;47.072;15.132;2023-02-02T05:56:26;96649.00;;;5.74;66.86
20930;BME280;21895;47.072;15.132;2023-02-02T05:58:53;96658.00;;;5.30;68.84
20930;BME280;21895;47.072;15.132;2023-02-02T06:01:20;96664.00;;;5.12;70.02
20930;BME280;21895;47.072;15.132;2023-02-02T06:03:46;96668.00;;;4.75;71.42
20930;BME280;21895;47.072;15.132;2023-02-02T06:06:13;96669.00;;;4.62;72.23
20930;BME280;21895;47.072;15.132;2023-02-02T06:08:40;96678.00;;;4.63;72.57
20930;BME280;21895;47.072;15.132;2023-02-02T06:11:11;96685.00;;;4.44;73.35
20930;BME280;21895;47.072;15.132;2023-02-02T06:13:38;96683.00;;;4.46;73.83
20930;BME280;21895;47.072;15.132;2023-02-02T06:16:05;96685.00;;;4.43;74.09
20930;BME280;21895;47.072;15.132;2023-02-02T06:18:33;96697.00;;;4.19;75.02
20930;BME280;21895;47.072;15.132;2023-02-02T06:21:02;96702.00;;;4.15;75.55
20930;BME280;21895;47.072;15.132;2023-02-02T06:23:32;96711.00;;;4.01;76.30
20930;BME280;21895;47.072;15.132;2023-02-02T06:25:59;96724.00;;;3.93;76.86
20930;BME280;21895;47.072;15.132;2023-02-02T06:28:26;96737.00;;;3.88;77.69
20930;BME280;21895;47.072;15.132;2023-02-02T06:30:52;96752.00;;;4.05;77.69
20930;BME280;21895;47.072;15.132;2023-02-02T06:33:19;96751.00;;;4.09;78.00
20930;BME280;21895;47.072;15.132;2023-02-02T06:35:45;96770.00;;;4.20;78.01
20930;BME280;21895;47.072;15.132;2023-02-02T06:38:11;96782.00;;;4.06;78.30
20930;BME280;21895;47.072;15.132;2023-02-02T06:40:38;96798.00;;;3.84;79.21
20930;BME280;21895;47.072;15.132;2023-02-02T06:43:04;96789.00;;;3.91;79.27
20930;BME280;21895;47.072;15.132;2023-02-02T06:45:31;96795.00;;;4.10;78.90
20930;BME280;21895;47.072;15.132;2023-02-02T06:47:59;96802.00;;;4.22;78.48
20930;BME280;21895;47.072;15.132;2023-02-02T06:50:29;96808.00;;;4.29;78.04
20930;BME280;21895;47.072;15.132;2023-02-02T06:52:55;96818.00;;;4.36;77.59
20930;BME280;21895;47.072;15.132;2023-02-02T06:55:22;96822.00;;;4.49;77.34
20930;BME280;21895;47.072;15.132;2023-02-02T06:57:59;96830.00;;;4.54;77.27
20930;BME280;21895;47.072;15.132;2023-02-02T07:00:27;96819.00;;;4.66;77.05
20930;BME280;21895;47.072;15.132;2023-02-02T07:02:54;96833.00;;;4.82;76.16
20930;BME280;21895;47.072;15.132;2023-02-02T07:05:22;96837.00;;;4.80;75.90
20930;BME280;21895;47.072;15.132;2023-02-02T07:07:50;96843.00;;;4.85;75.55
20930;BME280;21895;47.072;15.132;2023-02-02T07:10:17;96846.00;;;4.75;75.42
20930;BME280;21895;47.072;15.132;2023-02-02T07:13:40;96864.00;;;4.80;75.67
20930;BME280;21895;47.072;15.132;2023-02-02T07:16:07;96870.00;;;4.74;76.03
20930;BME280;21895;47.072;15.132;2023-02-02T07:18:38;96870.00;;;4.72;76.10
20930;BME280;21895;47.072;15.132;2023-02-02T07:21:05;96876.00;;;4.80;75.90
20930;BME280;21895;47.072;15.132;2023-02-02T07:23:33;96870.00;;;4.71;75.89
20930;BME280;21895;47.072;15.132;2023-02-02T07:26:06;96879.00;;;4.76;75.82
20930;BME280;21895;47.072;15.132;2023-02-02T07:28:34;96865.00;;;4.65;75.85
20930;BME280;21895;47.072;15.132;2023-02-02T07:31:14;96871.00;;;4.60;76.39
20930;BME280;21895;47.072;15.132;2023-02-02T07:33:43;96865.00;;;4.58;76.71
20930;BME280;21895;47.072;15.132;2023-02-02T07:36:12;96870.00;;;4.87;76.21
20930;BME280;21895;47.072;15.132;2023-02-02T07:38:42;96858.00;;;4.96;75.44
20930;BME280;21895;47.072;15.132;2023-02-02T07:41:09;96859.00;;;5.13;75.17
20930;BME280;21895;47.072;15.132;2023-02-02T07:43:35;96863.00;;;5.09;75.63
20930;BME280;21895;47.072;15.132;2023-02-02T07:46:04;96868.00;;;5.18;75.68
20930;BME280;21895;47.072;15.132;2023-02-02T07:48:34;96876.00;;;5.36;75.07
20930;BME280;21895;47.072;15.132;2023-02-02T07:51:03;96886.00;;;5.41;74.99
20930;BME280;21895;47.072;15.132;2023-02-02T07:53:31;96883.00;;;5.45;75.07
20930;BME280;21895;47.072;15.132;2023-02-02T07:56:10;96888.00;;;5.58;74.53
20930;BME280;21895;47.072;15.132;2023-02-02T07:58:38;96888.00;;;5.56;74.20
20930;BME280;21895;47.072;15.132;2023-02-02T08:01:07;96894.00;;;5.62;73.98
20930;BME280;21895;47.072;15.132;2023-02-02T08:03:37;96901.00;;;5.51;74.33
20930;BME280;21895;47.072;15.132;2023-02-02T08:06:17;96900.00;;;5.52;74.52
20930;BME280;21895;47.072;15.132;2023-02-02T08:08:44;96908.00;;;5.33;74.80
20930;BME280;21895;47.072;15.132;2023-02-02T08:11:14;96912.00;;;5.60;74.30
20930;BME280;21895;47.072;15.132;2023-02-02T08:13:42;96905.00;;;5.47;74.30
20930;BME280;21895;47.072;15.132;2023-02-02T08:16:10;96917.00;;;5.32;75.12
20930;BME280;21895;47.072;15.132;2023-02-02T08:18:37;96914.00;;;5.44;75.18
20930;BME280;21895;47.072;15.132;2023-02-02T08:21:06;96914.00;;;5.34;75.48
20930;BME280;21895;47.072;15.132;2023-02-02T08:23:34;96914.00;;;5.33;75.49
20930;BME280;21895;47.072;15.132;2023-02-02T08:27:02;96918.00;;;5.27;75.61
20930;BME280;21895;47.072;15.132;2023-02-02T08:29:28;96924.00;;;5.37;75.21
20930;BME280;21895;47.072;15.132;2023-02-02T08:31:57;96922.00;;;5.28;75.85
20930;BME280;21895;47.072;15.132;2023-02-02T08:34:25;96920.00;;;5.16;76.12
20930;BME280;21895;47.072;15.132;2023-02-02T08:36:51;96930.00;;;5.14;76.48
20930;BME280;21895;47.072;15.132;2023-02-02T08:39:18;96923.00;;;5.28;75.67
20930;BME280;21895;47.072;15.132;2023-02-02T08:41:44;96931.00;;;5.22;75.31
20930;BME280;21895;47.072;15.132;2023-02-02T08:44:14;96935.00;;;5.14;75.46
20930;BME280;21895;47.072;15.132;2023-02-02T08:46:41;96928.00;;;5.10;75.97
20930;BME280;21895;47.072;15.132;2023-02-02T08:49:12;96941.00;;;5.22;75.93
20930;BME280;21895;47.072;15.132;2023-02-02T08:51:38;96965.00;;;5.47;74.91
20930;BME280;21895;47.072;15.132;2023-02-02T08:54:05;96953.00;;;5.34;74.84
20930;BME280;21895;47.072;15.132;2023-02-02T08:56:31;96935.00;;;5.34;74.95
20930;BME280;21895;47.072;15.132;2023-02-02T08:58:58;96949.00;;;5.43;74.97
20930;BME280;21895;47.072;15.132;2023-02-02T09:01:31;96958.00;;;5.46;74.97
20930;BME280;21895;47.072;15.132;2023-02-02T09:04:04;96952.00;;;5.41;75.48
20930;BME280;21895;47.072;15.132;2023-02-02T09:06:37;96970.00;;;5.58;75.03
20930;BME280;21895;47.072;15.132;2023-02-02T09:09:07;96954.00;;;5.54;74.30
20930;BME280;21895;47.072;15.132;2023-02-02T09:11:35;96961.00;;;5.61;74.72
20930;BME280;21895;47.072;15.132;2023-02-02T09:14:02;96966.00;;;5.80;73.63
20930;BME280;21895;47.072;15.132;2023-02-02T09:16:33;96969.00;;;5.79;73.52
20930;BME280;21895;47.072;15.132;2023-02-02T09:19:00;96970.00;;;6.06;73.24
20930;BME280;21895;47.072;15.132;2023-02-02T09:21:26;96978.00;;;6.14;72.02
20930;BME280;21895;47.072;15.132;2023-02-02T09:23:53;96977.00;;;6.15;71.43
20930;BME280;21895;47.072;15.132;2023-02-02T09:26:24;96972.00;;;6.10;71.24
20930;BME280;21895;47.072;15.132;2023-02-02T09:29:14;96985.00;;;6.15;71.33
20930;BME280;21895;47.072;15.132;2023-02-02T09:31:43;96980.00;;;6.17;70.20
20930;BME280;21895;47.072;15.132;2023-02-02T09:36:52;96995.00;;;6.31;71.94
20930;BME280;21895;47.072;15.132;2023-02-02T09:39:19;96989.00;;;6.27;72.19
20930;BME280;21895;47.072;15.132;2023-02-02T09:45:05;96991.00;;;6.17;72.82
20930;BME280;21895;47.072;15.132;2023-02-02T09:47:56;96993.00;;;6.23;72.38
20930;BME280;21895;47.072;15.132;2023-02-02T09:50:57;97000.00;;;6.23;73.15
20930;BME280;21895;47.072;15.132;2023-02-02T09:53:52;97001.00;;;6.25;73.41
20930;BME280;21895;47.072;15.132;2023-02-02T09:56:42;96998.00;;;6.36;73.17
20930;BME280;21895;47.072;15.132;2023-02-02T09:59:30;96992.00;;;6.49;72.80
20930;BME280;21895;47.072;15.132;2023-02-02T10:02:54;96994.00;;;6.67;72.03
20930;BME280;21895;47.072;15.132;2023-02-02T10:05:30;96992.00;;;6.75;72.06
20930;BME280;21895;47.072;15.132;2023-02-02T10:08:04;96993.00;;;6.83;71.47
20930;BME280;21895;47.072;15.132;2023-02-02T10:10:39;96993.00;;;6.78;71.70
20930;BME280;21895;47.072;15.132;2023-02-02T10:13:18;96995.00;;;7.02;70.83
20930;BME280;21895;47.072;15.132;2023-02-02T10:16:26;96998.00;;;7.09;70.30
20930;BME280;21895;47.072;15.132;2023-02-02T10:19:08;96998.00;;;6.96;69.97
20930;BME280;21895;47.072;15.132;2023-02-02T10:21:50;96994.00;;;6.85;71.04
20930;BME280;21895;47.072;15.132;2023-02-02T10:24:23;96988.00;;;6.93;71.02
20930;BME280;21895;47.072;15.132;2023-02-02T10:27:02;96995.00;;;7.12;70.63
20930;BME280;21895;47.072;15.132;2023-02-02T10:29:44;96996.00;;;7.11;70.41
20930;BME280;21895;47.072;15.132;2023-02-02T10:32:34;96994.00;;;7.17;70.78
20930;BME280;21895;47.072;15.132;2023-02-02T10:35:42;96993.00;;;7.32;70.40
20930;BME280;21895;47.072;15.132;2023-02-02T10:38:49;96994.00;;;7.48;69.75
20930;BME280;21895;47.072;15.132;2023-02-02T10:46:21;97000.00;;;7.44;69.42
20930;BME280;21895;47.072;15.132;2023-02-02T10:48:49;97009.00;;;7.36;69.06
20930;BME280;21895;47.072;15.132;2023-02-02T10:51:26;96998.00;;;7.37;69.18
20930;BME280;21895;47.072;15.132;2023-02-02T10:53:56;96998.00;;;7.37;68.71
20930;BME280;21895;47.072;15.132;2023-02-02T10:56:41;96998.00;;;7.39;68.84
20930;BME280;21895;47.072;15.132;2023-02-02T10:59:23;96996.00;;;7.30;69.11
20930;BME280;21895;47.072;15.132;2023-02-02T11:01:52;96996.00;;;7.11;69.98
20930;BME280;21895;47.072;15.132;2023-02-02T11:04:21;97001.00;;;7.19;70.19
20930;BME280;21895;47.072;15.132;2023-02-02T11:07:06;96989.00;;;7.17;70.03
20930;BME280;21895;47.072;15.132;2023-02-02T11:09:41;96991.00;;;7.25;70.26
20930;BME280;21895;47.072;15.132;2023-02-02T11:12:34;96980.00;;;7.44;70.35
20930;BME280;21895;47.072;15.132;2023-02-02T11:15:06;96983.00;;;7.20;71.07
20930;BME280;21895;47.072;15.132;2023-02-02T11:17:34;96976.00;;;7.23;70.49
20930;BME280;21895;47.072;15.132;2023-02-02T11:20:00;96971.00;;;7.09;71.49
20930;BME280;21895;47.072;15.132;2023-02-02T11:22:34;96967.00;;;7.05;71.29
20930;BME280;21895;47.072;15.132;2023-02-02T11:25:08;96961.00;;;7.14;70.62
20930;BME280;21895;47.072;15.132;2023-02-02T11:27:47;96960.00;;;7.02;71.22
20930;BME280;21895;47.072;15.132;2023-02-02T11:33:27;96957.00;;;6.97;72.17
20930;BME280;21895;47.072;15.132;2023-02-02T11:36:02;96954.00;;;7.11;71.36
20930;BME280;21895;47.072;15.132;2023-02-02T11:38:31;96951.00;;;7.18;70.66
20930;BME280;21895;47.072;15.132;2023-02-02T11:41:06;96954.00;;;7.10;70.86
20930;BME280;21895;47.072;15.132;2023-02-02T11:43:51;96945.00;;;6.94;71.54
20930;BME280;21895;47.072;15.132;2023-02-02T11:46:26;96941.00;;;6.98;71.78
20930;BME280;21895;47.072;15.132;2023-02-02T11:49:03;96941.00;;;6.97;71.56
20930;BME280;21895;47.072;15.132;2023-02-02T11:51:33;96941.00;;;7.04;71.71
20930;BME280;21895;47.072;15.132;2023-02-02T11:54:28;96933.00;;;7.01;71.89
20930;BME280;21895;47.072;15.132;2023-02-02T11:57:01;96942.00;;;7.19;71.64
20930;BME280;21895;47.072;15.132;2023-02-02T11:59:41;96947.00;;;7.24;70.92
20930;BME280;21895;47.072;15.132;2023-02-02T12:04:23;96939.00;;;7.32;70.39
20930;BME280;21895;47.072;15.132;2023-02-02T12:06:50;96941.00;;;7.17;70.52
20930;BME280;21895;47.072;15.132;2023-02-02T12:09:23;96942.00;;;7.31;70.19
20930;BME280;21895;47.072;15.132;2023-02-02T12:14:28;96942.00;;;7.42;70.05
20930;BME280;21895;47.072;15.132;2023-02-02T12:23:04;96928.00;;;7.78;68.58
20930;BME280;21895;47.072;15.132;2023-02-02T12:26:18;96928.00;;;8.01;67.20
20930;BME280;21895;47.072;15.132;2023-02-02T12:29:32;96926.00;;;8.07;67.45
20930;BME280;21895;47.072;15.132;2023-02-02T12:33:54;96931.00;;;8.18;67.04
20930;BME280;21895;47.072;15.132;2023-02-02T12:42:17;96928.00;;;7.90;67.39
20930;BME280;21895;47.072;15.132;2023-02-02T12:56:08;96930.00;;;7.88;66.63
20930;BME280;21895;47.072;15.132;2023-02-02T13:06:04;96920.00;;;7.57;68.30
20930;BME280;21895;47.072;15.132;2023-02-02T13:09:27;96928.00;;;7.51;68.12
20930;BME280;21895;47.072;15.132;2023-02-02T13:12:06;96923.00;;;7.32;69.22
20930;BME280;21895;47.072;15.132;2023-02-02T13:14:46;96931.00;;;7.34;69.33
20930;BME280;21895;47.072;15.132;2023-02-02T13:17:25;96921.00;;;7.52;69.12
20930;BME280;21895;47.072;15.132;2023-02-02T13:20:02;96921.00;;;7.39;69.29
20930;BME280;21895;47.072;15.132;2023-02-02T13:22:44;96923.00;;;7.48;68.77
20930;BME280;21895;47.072;15.132;2023-02-02T13:25:28;96924.00;;;7.37;69.03
20930;BME280;21895;47.072;15.132;2023-02-02T13:27:58;96919.00;;;7.30;69.15
20930;BME280;21895;47.072;15.132;2023-02-02T13:30:36;96926.00;;;7.21;70.15
20930;BME280;21895;47.072;15.132;2023-02-02T13:33:18;96927.00;;;7.11;70.33
20930;BME280;21895;47.072;15.132;2023-02-02T13:36:02;96922.00;;;7.26;69.72
20930;BME280;21895;47.072;15.132;2023-02-02T13:38:30;96927.00;;;7.01;70.31
20930;BME280;21895;47.072;15.132;2023-02-02T13:41:05;96928.00;;;7.00;70.57
20930;BME280;21895;47.072;15.132;2023-02-02T13:43:54;96936.00;;;6.85;71.65
20930;BME280;21895;47.072;15.132;2023-02-02T13:46:55;96922.00;;;7.05;71.45
20930;BME280;21895;47.072;15.132;2023-02-02T13:49:31;96927.00;;;7.01;71.27
20930;BME280;21895;47.072;15.132;2023-02-02T14:00:32;96936.00;;;6.77;72.22
20930;BME280;21895;47.072;15.132;2023-02-02T14:03:05;96930.00;;;6.64;72.12
20930;BME280;21895;47.072;15.132;2023-02-02T14:05:41;96944.00;;;6.62;72.44
20930;BME280;21895;47.072;15.132;2023-02-02T14:08:20;96939.00;;;6.61;71.41
20930;BME280;21895;47.072;15.132;2023-02-02T14:11:30;96941.00;;;6.65;70.68
20930;BME280;21895;47.072;15.132;2023-02-02T14:14:19;96942.00;;;6.64;71.56
20930;BME280;21895;47.072;15.132;2023-02-02T14:17:03;96952.00;;;6.59;71.53
20930;BME280;21895;47.072;15.132;2023-02-02T14:19:57;96951.00;;;6.52;72.19
20930;BME280;21895;47.072;15.132;2023-02-02T14:22:45;96949.00;;;6.49;72.23
20930;BME280;21895;47.072;15.132;2023-02-02T14:27:57;96951.00;;;6.47;72.22
20930;BME280;21895;47.072;15.132;2023-02-02T14:30:34;96962.00;;;6.37;72.83
20930;BME280;21895;47.072;15.132;2023-02-02T14:33:25;96966.00;;;6.29;73.06
20930;BME280;21895;47.072;15.132;2023-02-02T14:36:00;96967.00;;;6.30;73.31
20930;BME280;21895;47.072;15.132;2023-02-02T14:39:28;96956.00;;;6.24;73.63
20930;BME280;21895;47.072;15.132;2023-02-02T14:43:52;96969.00;;;6.31;73.42
20930;BME280;21895;47.072;15.132;2023-02-02T14:46:37;96965.00;;;6.26;73.17
20930;BME280;21895;47.072;15.132;2023-02-02T14:49:09;96973.00;;;6.21;72.71
20930;BME280;21895;47.072;15.132;2023-02-02T14:51:55;96979.00;;;6.16;73.20